createdAt,value
2023-05-22T00:00:46.087Z,14.8093
2023-05-22T00:08:00.567Z,14.7719
2023-05-22T00:11:05.458Z,14.6628
2023-05-22T00:12:08.201Z,14.6227
2023-05-22T00:13:11.427Z,14.5701
2023-05-22T00:15:11.824Z,14.4330
2023-05-22T00:16:14.520Z,14.4620
2023-05-22T00:17:17.392Z,14.3684
2023-05-22T00:18:20.072Z,14.3706
2023-05-22T00:19:23.707Z,14.2885
2023-05-22T00:20:24.448Z,14.1220
2023-05-22T00:21:27.170Z,14.0574
2023-05-22T00:28:39.804Z,13.3282
2023-05-22T00:29:40.826Z,13.2397
2023-05-22T00:30:41.802Z,13.0873
2023-05-22T00:32:43.498Z,12.8729
2023-05-22T00:33:46.206Z,12.8088
2023-05-22T00:34:53.742Z,12.7687
2023-05-22T00:42:04.786Z,12.2901
2023-05-22T00:43:05.200Z,12.2567
2023-05-22T00:45:07.709Z,12.1721
2023-05-22T00:46:11.206Z,12.1152
2023-05-22T00:48:11.149Z,12.0514
2023-05-22T00:49:13.892Z,11.9944
2023-05-22T00:50:16.640Z,11.8985
2023-05-22T00:51:20.491Z,11.8879
2023-05-22T00:52:20.623Z,11.8342
2023-05-22T00:53:22.758Z,11.8721
2023-05-22T00:54:25.516Z,11.8378
2023-05-22T00:55:28.930Z,11.8547
2023-05-22T00:56:36.175Z,11.8498
2023-05-22T00:57:30.108Z,11.8160
2023-05-22T00:58:39.684Z,11.7786
2023-05-22T01:04:03.495Z,11.7051
2023-05-22T01:04:48.272Z,11.6755
2023-05-22T01:08:53.457Z,11.6854
2023-05-22T01:09:53.281Z,11.7038
2023-05-22T01:10:57.082Z,11.6915
2023-05-22T01:11:59.856Z,11.6650
2023-05-22T01:13:02.799Z,11.6585
2023-05-22T01:15:05.287Z,11.6725
2023-05-22T01:16:08.113Z,11.6503
2023-05-22T01:18:14.408Z,11.7263
2023-05-22T01:30:39.492Z,11.3673
2023-05-22T01:31:41.329Z,11.2972
2023-05-22T01:32:41.596Z,11.2654
2023-05-22T01:47:11.972Z,10.9213
2023-05-22T01:48:15.620Z,10.9831
2023-05-22T01:55:28.451Z,10.4491
2023-05-22T01:56:29.033Z,10.4177
2023-05-22T01:57:29.046Z,10.4265
2023-05-22T01:58:31.870Z,10.3694
2023-05-22T01:59:31.901Z,10.3892
2023-05-22T02:00:34.673Z,10.3118
2023-05-22T02:01:37.515Z,10.3627
2023-05-22T02:02:37.653Z,10.2759
2023-05-22T02:03:38.507Z,10.1865
2023-05-22T02:06:44.389Z,9.7630
2023-05-22T02:07:44.838Z,9.7835
2023-05-22T02:08:45.123Z,9.8307
2023-05-22T02:10:50.632Z,9.7383
2023-05-22T02:11:50.681Z,9.8344
2023-05-22T02:12:51.267Z,9.6866
2023-05-22T02:14:54.047Z,9.6335
2023-05-22T02:15:54.737Z,9.6192
2023-05-22T02:16:55.477Z,9.5962
2023-05-22T02:18:58.081Z,9.5809
2023-05-22T02:20:00.933Z,9.4205
2023-05-22T02:21:03.708Z,9.2164
2023-05-22T02:22:07.888Z,9.1917
2023-05-22T02:29:18.585Z,9.4839
2023-05-22T02:30:19.107Z,9.4947
2023-05-22T02:31:20.468Z,9.4899
2023-05-22T02:32:21.251Z,9.5524
2023-05-22T02:33:21.843Z,9.5389
2023-05-22T02:36:24.839Z,9.6438
2023-05-22T02:37:25.633Z,9.6935
2023-05-22T02:38:28.588Z,9.7523
2023-05-22T02:39:32.081Z,9.7333
2023-05-22T02:40:32.121Z,9.7001
2023-05-22T02:47:42.958Z,9.8057
2023-05-22T02:48:43.945Z,9.8871
2023-05-22T02:50:47.307Z,9.8165
2023-05-22T02:51:47.382Z,9.8021
2023-05-22T02:52:48.078Z,10.0335
2023-05-22T02:53:48.973Z,10.1231
2023-05-22T02:54:49.085Z,10.0984
2023-05-22T02:55:52.593Z,10.0725
2023-05-22T02:56:53.186Z,10.0599
2023-05-22T03:07:11.669Z,9.7409
2023-05-22T03:09:12.070Z,9.9869
2023-05-22T03:10:14.895Z,9.9692
2023-05-22T03:11:17.744Z,10.1352
2023-05-22T03:12:21.298Z,10.1372
2023-05-22T03:13:21.367Z,10.0687
2023-05-22T03:14:24.179Z,10.0783
2023-05-22T03:15:27.109Z,10.0220
2023-05-22T03:16:28.177Z,9.8687
2023-05-22T03:17:28.845Z,9.8574
2023-05-22T03:26:38.425Z,8.8484
2023-05-22T03:27:39.790Z,8.7393
2023-05-22T03:28:40.060Z,8.8354
2023-05-22T03:29:41.137Z,8.8070
2023-05-22T03:38:58.041Z,9.3906
2023-05-22T03:39:58.105Z,10.0232
2023-05-22T03:40:59.438Z,10.3674
2023-05-22T03:42:01.997Z,10.5108
2023-05-22T03:43:02.104Z,10.5087
2023-05-22T03:45:04.476Z,10.4200
2023-05-22T03:46:05.050Z,10.3711
2023-05-22T03:47:05.672Z,10.3089
2023-05-22T03:48:05.785Z,10.2633
2023-05-22T03:49:08.599Z,10.2261
2023-05-22T03:50:10.585Z,10.1969
2023-05-22T03:51:30.342Z,10.1881
2023-05-22T03:57:24.609Z,10.0112
2023-05-22T03:58:27.544Z,10.0191
2023-05-22T03:59:31.030Z,10.0444
2023-05-22T04:00:32.999Z,10.0243
2023-05-22T04:01:32.874Z,10.0677
2023-05-22T04:02:36.368Z,10.0758
2023-05-22T04:03:37.000Z,10.1543
2023-05-22T04:06:42.788Z,10.2856
2023-05-22T04:10:51.954Z,10.4837
2023-05-22T04:12:55.041Z,10.4747
2023-05-22T04:13:55.585Z,10.4866
2023-05-22T04:24:12.235Z,10.4058
2023-05-22T04:25:13.340Z,10.4848
2023-05-22T04:31:28.695Z,10.7983
2023-05-22T04:46:58.645Z,10.9402
2023-05-22T04:48:01.467Z,10.9410
2023-05-22T04:49:04.912Z,10.9393
2023-05-22T04:50:05.348Z,10.8898
2023-05-22T04:58:22.021Z,10.7343
2023-05-22T05:01:27.203Z,10.8691
2023-05-22T05:02:30.064Z,10.9815
2023-05-22T05:03:33.398Z,10.9937
2023-05-22T05:09:41.838Z,11.5330
2023-05-22T05:10:44.654Z,11.6684
2023-05-22T05:11:47.434Z,11.8312
2023-05-22T05:12:50.201Z,11.9557
2023-05-22T05:13:52.975Z,12.1490
2023-05-22T05:14:55.703Z,12.3363
2023-05-22T05:15:59.120Z,12.4448
2023-05-22T05:17:01.085Z,12.6433
2023-05-22T05:18:01.733Z,12.9561
2023-05-22T05:19:02.430Z,13.1293
2023-05-22T05:21:06.353Z,13.2961
2023-05-22T05:22:07.793Z,13.3674
2023-05-22T05:23:07.833Z,13.4911
2023-05-22T05:25:11.828Z,13.6765
2023-05-22T05:26:12.378Z,13.7568
2023-05-22T05:29:20.690Z,14.1909
2023-05-22T05:30:20.933Z,14.1836
2023-05-22T05:32:23.750Z,14.3666
2023-05-22T05:33:23.752Z,14.5051
2023-05-22T05:37:32.227Z,14.8618
2023-05-22T05:38:32.309Z,15.0199
2023-05-22T05:39:35.126Z,15.2083
2023-05-22T05:41:38.116Z,15.4125
2023-05-22T05:42:39.326Z,15.5336
2023-05-22T05:43:42.187Z,15.6513
2023-05-22T05:44:42.195Z,15.6540
2023-05-22T05:45:42.282Z,15.6948
2023-05-22T05:46:45.146Z,15.3058
2023-05-22T05:49:51.781Z,14.6845
2023-05-22T05:57:03.487Z,14.7293
2023-05-22T05:58:04.395Z,14.6367
2023-05-22T06:04:11.158Z,14.3841
2023-05-22T06:05:11.268Z,14.4395
2023-05-22T06:06:14.057Z,14.4912
2023-05-22T06:07:16.839Z,14.4507
2023-05-22T06:08:16.964Z,14.4762
2023-05-22T06:15:28.557Z,14.8604
2023-05-22T06:16:29.209Z,15.0055
2023-05-22T06:18:32.210Z,15.5534
2023-05-22T06:19:33.064Z,16.0186
2023-05-22T06:20:33.049Z,15.9444
2023-05-22T06:22:39.315Z,16.3698
2023-05-22T06:23:39.829Z,16.3584
2023-05-22T06:27:49.408Z,15.4404
2023-05-22T06:32:58.197Z,15.6637
2023-05-22T06:39:11.726Z,15.8086
2023-05-22T06:40:36.753Z,15.7622
2023-05-22T06:41:16.758Z,15.8603
2023-05-22T06:44:22.711Z,16.2617
2023-05-22T06:48:29.056Z,16.2424
2023-05-22T06:49:29.124Z,16.3479
2023-05-22T06:51:32.518Z,16.5049
2023-05-22T06:52:33.366Z,16.7985
2023-05-22T06:58:42.388Z,17.2166
2023-05-22T06:59:42.440Z,17.0954
2023-05-22T07:00:45.225Z,17.3200
2023-05-22T07:01:48.082Z,17.3055
2023-05-22T07:02:49.491Z,17.3078
2023-05-22T07:03:49.994Z,17.7597
2023-05-22T07:06:53.904Z,18.4020
2023-05-22T07:24:36.629Z,18.3969
2023-05-22T07:53:46.369Z,20.0320
2023-05-22T08:08:23.121Z,21.5384
2023-05-22T08:09:25.935Z,21.2760
2023-05-22T08:10:37.250Z,21.1682
2023-05-22T08:28:14.199Z,21.4450
2023-05-22T08:38:40.859Z,21.9296
2023-05-22T08:39:43.576Z,21.8678
2023-05-22T08:40:46.652Z,21.8424
2023-05-22T08:41:46.551Z,21.7543
2023-05-22T08:46:59.844Z,22.0865
2023-05-22T08:54:15.532Z,21.9582
2023-05-22T09:05:39.869Z,22.3999
2023-05-22T09:06:39.911Z,22.4227
2023-05-22T09:07:42.739Z,22.6808
2023-05-22T09:13:55.862Z,22.9525
2023-05-22T09:14:58.596Z,23.0072
2023-05-22T09:16:01.296Z,23.0348
2023-05-22T09:17:04.131Z,22.9590
2023-05-22T09:28:30.034Z,24.3459
2023-05-22T09:29:32.816Z,24.2343
2023-05-22T09:30:35.579Z,24.4263
2023-05-22T09:31:38.403Z,24.2395
2023-05-22T09:37:51.434Z,23.8098
2023-05-22T09:44:04.368Z,24.5418
2023-05-22T09:45:07.135Z,24.3425
2023-05-22T09:46:09.955Z,24.1043
2023-05-22T09:53:25.205Z,24.3680
2023-05-22T09:56:39.199Z,24.5300
2023-05-22T09:57:35.837Z,24.3451
2023-05-22T09:58:38.558Z,24.3194
2023-05-22T09:59:41.310Z,24.6418
2023-05-22T10:00:44.055Z,24.9832
2023-05-22T10:01:46.857Z,25.4897
2023-05-22T10:23:37.525Z,25.5521
2023-05-22T10:24:40.226Z,25.7735
2023-05-22T10:25:42.926Z,25.9571
2023-05-22T10:26:45.668Z,25.6514
2023-05-22T10:32:58.503Z,25.4598
2023-05-22T10:36:03.521Z,24.8498
2023-05-22T10:49:34.582Z,25.4599
2023-05-22T11:06:15.960Z,25.7502
2023-05-22T11:07:18.659Z,25.7482
2023-05-22T11:08:21.405Z,25.5910
2023-05-22T11:40:35.053Z,26.7817
2023-05-22T11:48:49.767Z,27.3164
2023-05-22T11:49:52.407Z,27.1997
2023-05-22T11:50:52.152Z,27.2751
2023-05-22T11:51:54.805Z,27.2909
2023-05-22T11:57:04.682Z,28.5278
2023-05-22T12:46:50.883Z,30.4855
2023-05-22T12:49:53.066Z,27.7022
2023-05-22T13:21:02.675Z,31.1169
2023-05-22T13:45:53.966Z,28.7518
2023-05-22T14:05:33.439Z,32.3140
2023-05-22T14:06:34.805Z,31.0328
2023-05-22T14:07:35.097Z,32.1154
2023-05-22T14:08:35.493Z,34.0724
2023-05-22T14:09:36.010Z,34.3490
2023-05-22T14:10:36.363Z,32.5839
2023-05-22T14:11:37.668Z,31.5565
2023-05-22T14:23:45.288Z,31.8410
2023-05-22T14:25:48.383Z,32.8808
2023-05-22T14:30:54.454Z,29.8890
2023-05-22T14:52:44.491Z,34.3763
2023-05-22T14:53:47.082Z,35.3502
2023-05-22T14:58:57.028Z,34.5866
2023-05-22T15:00:59.259Z,35.6157
2023-05-22T15:19:41.417Z,32.2792
2023-05-22T15:24:45.660Z,28.7446
2023-05-22T15:32:00.549Z,25.8462
2023-05-22T15:46:33.807Z,23.8435
2023-05-22T15:49:38.949Z,23.6280
2023-05-22T16:32:15.362Z,29.5115
2023-05-22T16:34:17.862Z,30.3554
2023-05-22T17:26:05.316Z,29.1604
2023-05-22T17:44:36.498Z,24.2212
2023-05-22T18:00:03.646Z,21.4881
2023-05-22T18:12:31.627Z,21.0294
2023-05-22T18:21:41.109Z,19.8475
2023-05-22T18:22:42.158Z,19.7844
2023-05-22T18:23:42.093Z,19.8582
2023-05-22T18:25:55.860Z,19.5591
2023-05-22T18:27:47.903Z,19.0781
2023-05-22T18:28:48.391Z,19.0426
2023-05-22T18:32:57.147Z,18.5353
2023-05-22T18:37:00.150Z,18.2876
2023-05-22T18:39:03.376Z,18.5979
2023-05-22T18:40:03.992Z,18.5014
2023-05-22T18:41:04.815Z,18.4819
2023-05-22T18:42:05.388Z,18.3823
2023-05-22T18:43:05.533Z,18.4016
2023-05-22T18:44:05.903Z,18.1940
2023-05-22T18:45:06.968Z,18.2088
2023-05-22T18:46:08.043Z,18.2016
2023-05-22T18:47:09.025Z,18.0499
2023-05-22T18:49:10.275Z,17.9380
2023-05-22T18:50:10.388Z,17.9196
2023-05-22T18:51:10.949Z,17.7713
2023-05-22T18:52:12.226Z,17.8501
2023-05-22T18:53:12.315Z,17.9880
2023-05-22T18:54:12.777Z,18.0706
2023-05-22T19:02:17.970Z,17.7242
2023-05-22T19:03:18.956Z,17.5941
2023-05-22T19:04:19.723Z,17.3260
2023-05-22T19:05:19.832Z,17.2718
2023-05-22T19:06:19.770Z,17.2654
2023-05-22T19:07:19.832Z,17.1412
2023-05-22T19:08:20.254Z,17.1986
2023-05-22T19:09:20.609Z,17.2192
2023-05-22T19:10:20.757Z,17.1378
2023-05-22T19:11:20.900Z,17.0677
2023-05-22T19:12:20.909Z,17.0101
2023-05-22T19:13:21.212Z,16.9372
2023-05-22T19:14:21.653Z,16.9447
2023-05-22T19:15:21.611Z,16.8632
2023-05-22T19:32:54.890Z,16.2818
2023-05-22T19:33:55.113Z,16.1862
2023-05-22T19:37:59.876Z,16.3233
2023-05-22T19:40:00.411Z,16.2399
2023-05-22T19:41:00.966Z,16.1389
2023-05-22T19:42:01.394Z,16.0815
2023-05-22T19:43:02.071Z,16.0591
2023-05-22T19:44:02.686Z,16.0750
2023-05-22T19:45:03.277Z,16.1015
2023-05-22T19:46:05.410Z,16.1005
2023-05-22T19:47:04.736Z,16.0427
2023-05-22T19:48:06.491Z,15.9727
2023-05-22T19:49:06.990Z,15.9274
2023-05-22T19:50:08.396Z,15.8159
2023-05-22T19:51:08.970Z,15.7426
2023-05-22T19:52:09.106Z,15.6966
2023-05-22T19:53:09.904Z,15.6278
2023-05-22T19:54:10.578Z,15.6173
2023-05-22T19:55:10.960Z,15.6365
2023-05-22T19:56:12.585Z,15.6456
2023-05-22T19:57:13.227Z,15.5500
2023-05-22T19:58:13.797Z,15.4695
2023-05-22T19:59:14.022Z,15.4951
2023-05-22T20:00:14.999Z,15.5536
2023-05-22T20:01:14.993Z,15.4429
2023-05-22T20:02:15.151Z,15.4150
2023-05-22T20:03:15.367Z,15.4465
2023-05-22T20:04:15.365Z,15.2888
2023-05-22T20:05:16.390Z,15.2521
2023-05-22T20:06:17.680Z,15.2840
2023-05-22T20:07:18.814Z,15.2903
2023-05-22T20:08:19.149Z,15.2769
2023-05-22T20:09:19.975Z,15.3529
2023-05-22T20:10:20.535Z,15.3848
2023-05-22T20:11:20.661Z,15.3226
2023-05-22T20:12:21.426Z,15.2681
2023-05-22T20:15:25.852Z,15.2239
2023-05-22T20:16:29.419Z,15.2152
2023-05-22T20:19:35.918Z,15.0766
2023-05-22T20:20:33.529Z,15.1166
2023-05-22T20:26:43.364Z,14.7704
2023-05-22T20:27:43.831Z,14.7106
2023-05-22T20:30:47.203Z,14.5883
2023-05-22T20:31:47.735Z,14.5479
2023-05-22T20:33:50.382Z,14.4959
2023-05-22T20:34:53.961Z,14.4719
2023-05-22T20:42:00.528Z,14.2444
2023-05-22T20:43:00.671Z,14.1997
2023-05-22T20:44:01.061Z,14.0597
2023-05-22T20:45:01.127Z,14.0495
2023-05-22T20:46:01.973Z,13.9701
2023-05-22T20:47:02.728Z,13.8897
2023-05-22T20:48:02.979Z,13.7486
2023-05-22T20:49:03.766Z,13.6423
2023-05-22T20:50:04.274Z,13.4721
2023-05-22T20:51:04.402Z,13.3203
2023-05-22T20:52:05.176Z,13.3116
2023-05-22T20:53:06.507Z,13.3444
2023-05-22T20:55:07.069Z,13.2742
2023-05-22T21:10:32.008Z,13.4612
2023-05-22T21:11:32.753Z,13.4089
2023-05-22T21:12:33.499Z,13.4392
2023-05-22T21:16:40.656Z,13.2335
2023-05-22T21:17:41.712Z,13.1827
2023-05-22T21:18:41.838Z,13.1389
2023-05-22T21:19:41.843Z,13.0412
2023-05-22T21:20:41.919Z,12.8760
2023-05-22T21:21:42.867Z,12.8257
2023-05-22T21:25:46.227Z,12.6529
2023-05-22T21:36:04.138Z,12.6361
2023-05-22T21:37:04.917Z,12.6270
2023-05-22T21:38:05.293Z,12.5703
2023-05-22T21:39:06.029Z,12.6236
2023-05-22T21:40:06.909Z,12.6893
2023-05-22T21:43:13.131Z,12.7674
2023-05-22T21:44:13.671Z,12.6744
2023-05-22T21:49:21.289Z,12.5598
2023-05-22T21:50:22.199Z,12.5524
2023-05-22T21:51:22.329Z,12.5862
2023-05-22T21:52:23.456Z,12.6890
2023-05-22T21:53:23.962Z,12.7692
2023-05-22T21:54:24.145Z,12.8102
2023-05-22T21:55:24.725Z,12.9194
2023-05-22T21:56:25.121Z,13.0299
2023-05-22T21:58:28.284Z,13.1031
2023-05-22T21:59:28.882Z,13.0850
2023-05-22T22:00:28.809Z,13.0978
2023-05-22T22:01:29.840Z,13.0858
2023-05-22T22:02:30.606Z,13.1021
2023-05-22T22:03:30.895Z,13.1108
2023-05-22T22:04:31.144Z,13.1509
2023-05-22T22:05:31.155Z,13.1847
2023-05-22T22:06:31.946Z,13.1628
2023-05-22T22:07:31.964Z,13.2325
2023-05-22T22:08:32.663Z,13.2702
2023-05-22T22:09:32.825Z,13.2823
2023-05-22T22:10:33.470Z,13.3045
2023-05-22T22:11:33.707Z,13.3000
2023-05-22T22:12:34.331Z,13.3028
2023-05-22T22:13:35.570Z,13.3331
2023-05-22T22:14:35.812Z,13.3654
2023-05-22T22:15:36.398Z,13.3709
2023-05-22T22:16:37.287Z,13.3982
2023-05-22T22:17:38.038Z,13.4153
2023-05-22T22:18:38.242Z,13.3958
2023-05-22T22:19:38.474Z,13.3659
2023-05-22T22:23:42.219Z,13.2668
2023-05-22T22:24:42.237Z,13.2688
2023-05-22T22:25:42.466Z,13.2097
2023-05-22T22:26:42.470Z,13.2380
2023-05-22T22:27:42.966Z,13.2634
2023-05-22T22:28:43.760Z,13.2723
2023-05-22T22:29:44.507Z,13.2335
2023-05-22T22:30:45.165Z,13.2117
2023-05-22T22:34:49.136Z,12.9644
2023-05-22T22:37:53.144Z,12.8165
2023-05-22T22:40:56.734Z,12.9333
2023-05-22T22:41:56.728Z,12.9189
2023-05-22T22:47:05.965Z,12.9346
2023-05-22T22:48:07.401Z,12.9289
2023-05-22T22:49:08.531Z,12.9574
2023-05-22T22:54:18.708Z,12.7724
2023-05-22T22:55:18.848Z,12.6573
2023-05-22T22:56:19.779Z,12.6037
2023-05-22T22:57:20.607Z,12.6063
2023-05-22T22:58:20.655Z,12.6122
2023-05-22T22:59:20.672Z,12.6432
2023-05-22T23:00:20.743Z,12.6396
2023-05-22T23:01:20.816Z,12.6138
2023-05-22T23:02:21.857Z,12.6067
2023-05-22T23:03:22.599Z,12.6143
2023-05-22T23:04:22.851Z,12.6420
2023-05-22T23:05:23.757Z,12.7026
2023-05-22T23:06:23.760Z,12.7512
2023-05-22T23:07:23.757Z,12.7354
2023-05-22T23:08:23.850Z,12.7381
2023-05-22T23:09:23.878Z,12.6672
2023-05-22T23:11:25.521Z,12.4632
2023-05-22T23:12:25.544Z,12.3198
2023-05-22T23:13:26.639Z,12.2729
2023-05-22T23:14:28.202Z,12.0405
2023-05-22T23:15:28.196Z,12.0548
2023-05-22T23:16:29.213Z,12.1239
2023-05-22T23:17:30.155Z,12.0772
2023-05-22T23:18:30.193Z,11.9374
2023-05-22T23:19:30.969Z,11.9000
2023-05-22T23:20:31.015Z,11.8944
2023-05-22T23:21:31.869Z,11.8239
2023-05-22T23:22:31.924Z,11.7956
2023-05-22T23:23:32.689Z,11.6991
2023-05-22T23:24:33.594Z,11.6688
2023-05-22T23:25:33.654Z,11.5321
2023-05-22T23:26:34.184Z,11.5441
2023-05-22T23:27:34.222Z,11.5273
2023-05-22T23:28:34.295Z,11.4338
2023-05-22T23:29:35.151Z,11.4196
2023-05-22T23:30:35.219Z,11.5405
2023-05-22T23:31:35.298Z,11.5925
2023-05-22T23:32:35.399Z,11.6062
2023-05-22T23:33:35.416Z,11.6426
2023-05-22T23:34:35.613Z,11.5967
2023-05-22T23:35:35.716Z,11.5552
2023-05-22T23:36:36.550Z,11.5028
2023-05-22T23:37:36.611Z,11.4848
2023-05-22T23:38:36.672Z,11.3442
2023-05-22T23:39:36.764Z,11.3074
2023-05-22T23:40:36.793Z,11.3163
2023-05-22T23:41:36.803Z,11.2339
2023-05-22T23:42:40.327Z,11.2738
2023-05-22T23:43:40.980Z,11.2633
2023-05-22T23:44:41.035Z,11.2545
2023-05-22T23:45:41.955Z,11.2856
2023-05-22T23:46:42.128Z,11.2435
2023-05-22T23:47:43.327Z,11.2897
2023-05-22T23:48:43.374Z,11.1896
2023-05-22T23:49:44.116Z,11.2183
2023-05-22T23:50:44.905Z,11.1992
2023-05-22T23:51:44.981Z,11.2772
2023-05-22T23:52:45.675Z,11.3315
2023-05-22T23:53:45.725Z,11.4351
2023-05-22T23:54:46.560Z,11.5319
2023-05-22T23:55:46.610Z,11.5554
2023-05-22T23:56:46.673Z,11.6159
2023-05-22T23:57:46.762Z,11.7083
2023-05-22T23:58:46.821Z,11.8003
2023-05-22T23:59:47.694Z,11.8935
